sensor_id;sensor_type;location;lat;lon;timestamp;pressure;altitude;pressure_sealevel;temperature;humidity
63115;BME280;49208;50.874;6.466;2022-08-02T00:00:22;100785.47;;;14.88;81.43
63115;BME280;49208;50.874;6.466;2022-08-02T00:02:48;100786.50;;;14.85;81.71
63115;BME280;49208;50.874;6.466;2022-08-02T00:05:14;100783.13;;;14.82;81.78
63115;BME280;49208;50.874;6.466;2022-08-02T00:07:39;100782.38;;;14.78;81.98
63115;BME280;49208;50.874;6.466;2022-08-02T00:10:06;100784.25;;;14.76;81.81
63115;BME280;49208;50.874;6.466;2022-08-02T00:12:32;100783.47;;;14.74;81.94
63115;BME280;49208;50.874;6.466;2022-08-02T00:14:58;100772.88;;;14.71;82.03
63115;BME280;49208;50.874;6.466;2022-08-02T00:17:23;100775.56;;;14.71;82.27
63115;BME280;49208;50.874;6.466;2022-08-02T00:19:49;100779.13;;;14.71;82.24
63115;BME280;49208;50.874;6.466;2022-08-02T00:22:14;100767.63;;;14.69;82.34
63115;BME280;49208;50.874;6.466;2022-08-02T00:24:39;100769.41;;;14.69;82.63
63115;BME280;49208;50.874;6.466;2022-08-02T00:27:05;100769.50;;;14.67;82.83
63115;BME280;49208;50.874;6.466;2022-08-02T00:29:33;100773.03;;;14.68;83.32
63115;BME280;49208;50.874;6.466;2022-08-02T00:31:58;100781.16;;;14.66;83.48
63115;BME280;49208;50.874;6.466;2022-08-02T00:34:23;100771.38;;;14.65;83.15
63115;BME280;49208;50.874;6.466;2022-08-02T00:36:49;100772.25;;;14.66;83.37
63115;BME280;49208;50.874;6.466;2022-08-02T00:39:14;100773.09;;;14.66;83.35
63115;BME280;49208;50.874;6.466;2022-08-02T00:41:48;100764.13;;;14.67;83.30
63115;BME280;49208;50.874;6.466;2022-08-02T00:44:15;100770.28;;;14.69;83.59
63115;BME280;49208;50.874;6.466;2022-08-02T00:46:40;100756.91;;;14.69;83.24
63115;BME280;49208;50.874;6.466;2022-08-02T00:49:06;100755.94;;;14.70;83.51
63115;BME280;49208;50.874;6.466;2022-08-02T00:51:31;100754.13;;;14.71;83.28
63115;BME280;49208;50.874;6.466;2022-08-02T00:53:57;100750.53;;;14.72;83.17
63115;BME280;49208;50.874;6.466;2022-08-02T00:56:22;100745.16;;;14.72;83.22
63115;BME280;49208;50.874;6.466;2022-08-02T00:58:47;100742.41;;;14.73;83.60
63115;BME280;49208;50.874;6.466;2022-08-02T01:01:14;100745.09;;;14.73;83.45
63115;BME280;49208;50.874;6.466;2022-08-02T01:03:40;100746.81;;;14.74;83.65
63115;BME280;49208;50.874;6.466;2022-08-02T01:06:05;100749.56;;;14.73;83.65
63115;BME280;49208;50.874;6.466;2022-08-02T01:08:31;100744.19;;;14.73;83.73
63115;BME280;49208;50.874;6.466;2022-08-02T01:10:56;100747.78;;;14.73;83.74
63115;BME280;49208;50.874;6.466;2022-08-02T01:13:22;100737.06;;;14.73;83.45
63115;BME280;49208;50.874;6.466;2022-08-02T01:15:54;100737.91;;;14.74;83.81
63115;BME280;49208;50.874;6.466;2022-08-02T01:18:30;100745.97;;;14.74;83.72
63115;BME280;49208;50.874;6.466;2022-08-02T01:26:25;100744.28;;;14.71;84.05
63115;BME280;49208;50.874;6.466;2022-08-02T01:29:00;100738.94;;;14.71;83.86
63115;BME280;49208;50.874;6.466;2022-08-02T01:34:02;100751.38;;;14.72;84.12
63115;BME280;49208;50.874;6.466;2022-08-02T01:36:33;100747.84;;;14.72;84.14
63115;BME280;49208;50.874;6.466;2022-08-02T01:39:01;100747.03;;;14.70;84.48
63115;BME280;49208;50.874;6.466;2022-08-02T01:41:30;100745.28;;;14.69;84.55
63115;BME280;49208;50.874;6.466;2022-08-02T01:43:58;100748.06;;;14.67;85.01
63115;BME280;49208;50.874;6.466;2022-08-02T01:46:26;100742.84;;;14.64;84.86
63115;BME280;49208;50.874;6.466;2022-08-02T01:48:54;100743.00;;;14.61;84.91
63115;BME280;49208;50.874;6.466;2022-08-02T01:51:20;100735.94;;;14.59;84.85
63115;BME280;49208;50.874;6.466;2022-08-02T01:54:08;100736.06;;;14.57;84.76
63115;BME280;49208;50.874;6.466;2022-08-02T01:56:35;100732.47;;;14.57;84.83
63115;BME280;49208;50.874;6.466;2022-08-02T01:59:03;100721.75;;;14.57;85.19
63115;BME280;49208;50.874;6.466;2022-08-02T02:01:31;100725.41;;;14.55;85.00
63115;BME280;49208;50.874;6.466;2022-08-02T02:03:59;100723.63;;;14.54;85.09
63115;BME280;49208;50.874;6.466;2022-08-02T02:06:26;100720.94;;;14.54;85.05
63115;BME280;49208;50.874;6.466;2022-08-02T02:08:52;100706.66;;;14.55;85.12
63115;BME280;49208;50.874;6.466;2022-08-02T02:11:17;100715.53;;;14.56;85.48
63115;BME280;49208;50.874;6.466;2022-08-02T02:13:44;100704.00;;;14.54;85.32
63115;BME280;49208;50.874;6.466;2022-08-02T02:16:10;100704.97;;;14.53;85.56
63115;BME280;49208;50.874;6.466;2022-08-02T02:18:39;100711.25;;;14.52;85.74
63115;BME280;49208;50.874;6.466;2022-08-02T02:21:06;100707.81;;;14.48;85.75
63115;BME280;49208;50.874;6.466;2022-08-02T02:23:31;100715.06;;;14.46;86.27
63115;BME280;49208;50.874;6.466;2022-08-02T02:25:57;100713.41;;;14.44;86.29
63115;BME280;49208;50.874;6.466;2022-08-02T02:28:29;100710.91;;;14.41;86.60
63115;BME280;49208;50.874;6.466;2022-08-02T02:31:02;100709.25;;;14.38;86.84
63115;BME280;49208;50.874;6.466;2022-08-02T02:33:30;100704.97;;;14.34;86.45
63115;BME280;49208;50.874;6.466;2022-08-02T02:35:58;100698.81;;;14.32;86.55
63115;BME280;49208;50.874;6.466;2022-08-02T02:38:27;100698.03;;;14.30;86.73
63115;BME280;49208;50.874;6.466;2022-08-02T02:40:55;100700.88;;;14.25;86.99
63115;BME280;49208;50.874;6.466;2022-08-02T02:43:23;100694.84;;;14.22;86.79
63115;BME280;49208;50.874;6.466;2022-08-02T02:45:52;100692.34;;;14.17;87.04
63115;BME280;49208;50.874;6.466;2022-08-02T02:48:19;100688.97;;;14.13;87.27
63115;BME280;49208;50.874;6.466;2022-08-02T02:50:46;100705.16;;;14.10;87.48
63115;BME280;49208;50.874;6.466;2022-08-02T02:53:12;100705.22;;;14.09;87.65
63115;BME280;49208;50.874;6.466;2022-08-02T02:55:42;100693.72;;;14.07;87.58
63115;BME280;49208;50.874;6.466;2022-08-02T02:58:08;100696.47;;;14.05;87.48
63115;BME280;49208;50.874;6.466;2022-08-02T03:00:34;100684.97;;;14.03;87.66
63115;BME280;49208;50.874;6.466;2022-08-02T03:03:19;100684.25;;;14.00;87.87
63115;BME280;49208;50.874;6.466;2022-08-02T03:05:45;100686.97;;;13.98;88.28
63115;BME280;49208;50.874;6.466;2022-08-02T03:08:10;100690.66;;;13.95;88.21
63115;BME280;49208;50.874;6.466;2022-08-02T03:10:37;100686.28;;;13.94;88.45
63115;BME280;49208;50.874;6.466;2022-08-02T03:13:03;100685.47;;;13.92;88.51
63115;BME280;49208;50.874;6.466;2022-08-02T03:15:29;100681.91;;;13.92;88.70
63115;BME280;49208;50.874;6.466;2022-08-02T03:17:55;100681.91;;;13.92;88.66
63115;BME280;49208;50.874;6.466;2022-08-02T03:20:20;100674.69;;;13.94;88.57
63115;BME280;49208;50.874;6.466;2022-08-02T03:22:49;100679.03;;;13.97;88.45
63115;BME280;49208;50.874;6.466;2022-08-02T03:25:16;100672.78;;;13.96;88.86
63115;BME280;49208;50.874;6.466;2022-08-02T03:27:41;100669.19;;;13.97;88.78
63115;BME280;49208;50.874;6.466;2022-08-02T03:30:10;100673.59;;;13.98;88.55
63115;BME280;49208;50.874;6.466;2022-08-02T03:32:37;100662.81;;;14.00;88.37
63115;BME280;49208;50.874;6.466;2022-08-02T03:35:04;100668.19;;;14.00;88.32
63115;BME280;49208;50.874;6.466;2022-08-02T03:37:31;100666.34;;;14.00;88.40
63115;BME280;49208;50.874;6.466;2022-08-02T03:39:58;100660.22;;;13.98;88.48
63115;BME280;49208;50.874;6.466;2022-08-02T03:42:26;100663.78;;;13.99;88.34
63115;BME280;49208;50.874;6.466;2022-08-02T03:44:52;100663.84;;;13.97;88.20
63115;BME280;49208;50.874;6.466;2022-08-02T03:47:18;100658.44;;;13.99;88.44
63115;BME280;49208;50.874;6.466;2022-08-02T03:49:44;100657.63;;;13.97;88.39
63115;BME280;49208;50.874;6.466;2022-08-02T03:52:10;100661.22;;;13.95;88.57
63115;BME280;49208;50.874;6.466;2022-08-02T03:54:36;100662.19;;;13.94;88.48
63115;BME280;49208;50.874;6.466;2022-08-02T03:57:04;100666.66;;;13.94;88.58
63115;BME280;49208;50.874;6.466;2022-08-02T03:59:42;100668.53;;;13.92;88.64
63115;BME280;49208;50.874;6.466;2022-08-02T04:02:09;100680.25;;;13.89;88.99
63115;BME280;49208;50.874;6.466;2022-08-02T04:04:34;100669.69;;;13.86;88.61
63115;BME280;49208;50.874;6.466;2022-08-02T04:07:00;100671.41;;;13.87;88.68
63115;BME280;49208;50.874;6.466;2022-08-02T04:09:25;100672.38;;;13.86;89.04
63115;BME280;49208;50.874;6.466;2022-08-02T04:11:50;100668.97;;;13.83;89.13
63115;BME280;49208;50.874;6.466;2022-08-02T04:14:16;100660.13;;;13.81;89.18
63115;BME280;49208;50.874;6.466;2022-08-02T04:16:52;100658.47;;;13.78;89.31
63115;BME280;49208;50.874;6.466;2022-08-02T04:19:43;100667.41;;;13.77;89.60
63115;BME280;49208;50.874;6.466;2022-08-02T04:22:17;100673.72;;;13.76;89.43
63115;BME280;49208;50.874;6.466;2022-08-02T04:24:49;100677.38;;;13.73;89.68
63115;BME280;49208;50.874;6.466;2022-08-02T04:27:15;100680.94;;;13.74;89.61
63115;BME280;49208;50.874;6.466;2022-08-02T04:29:42;100677.19;;;13.78;89.30
63115;BME280;49208;50.874;6.466;2022-08-02T04:32:08;100684.22;;;13.81;89.80
63115;BME280;49208;50.874;6.466;2022-08-02T04:34:34;100685.88;;;13.83;89.34
63115;BME280;49208;50.874;6.466;2022-08-02T04:36:59;100691.00;;;13.88;89.23
63115;BME280;49208;50.874;6.466;2022-08-02T04:39:25;100681.19;;;13.88;89.22
63115;BME280;49208;50.874;6.466;2022-08-02T04:41:51;100682.78;;;13.92;89.20
63115;BME280;49208;50.874;6.466;2022-08-02T04:44:16;100682.56;;;13.97;89.11
63115;BME280;49208;50.874;6.466;2022-08-02T04:46:43;100677.81;;;14.04;89.66
63115;BME280;49208;50.874;6.466;2022-08-02T04:49:08;100682.72;;;14.13;90.17
63115;BME280;49208;50.874;6.466;2022-08-02T04:51:39;100687.66;;;14.22;89.21
63115;BME280;49208;50.874;6.466;2022-08-02T04:54:06;100687.16;;;14.33;89.40
63115;BME280;49208;50.874;6.466;2022-08-02T04:56:32;100686.63;;;14.44;89.01
63115;BME280;49208;50.874;6.466;2022-08-02T04:58:57;100687.94;;;14.54;88.80
63115;BME280;49208;50.874;6.466;2022-08-02T05:01:23;100690.13;;;14.65;88.45
63115;BME280;49208;50.874;6.466;2022-08-02T05:03:48;100694.81;;;14.79;88.24
63115;BME280;49208;50.874;6.466;2022-08-02T05:06:14;100698.59;;;14.92;88.00
63115;BME280;49208;50.874;6.466;2022-08-02T05:08:39;100695.25;;;15.06;86.89
63115;BME280;49208;50.874;6.466;2022-08-02T05:11:04;100691.81;;;15.21;86.46
63115;BME280;49208;50.874;6.466;2022-08-02T05:13:30;100682.16;;;15.34;86.30
63115;BME280;49208;50.874;6.466;2022-08-02T05:15:55;100686.84;;;15.48;85.83
63115;BME280;49208;50.874;6.466;2022-08-02T05:18:23;100681.44;;;15.66;84.98
63115;BME280;49208;50.874;6.466;2022-08-02T05:20:48;100675.13;;;15.84;84.20
63115;BME280;49208;50.874;6.466;2022-08-02T05:23:14;100683.03;;;16.03;83.35
63115;BME280;49208;50.874;6.466;2022-08-02T05:25:39;100679.41;;;16.20;82.02
63115;BME280;49208;50.874;6.466;2022-08-02T05:28:04;100688.28;;;16.38;80.81
63115;BME280;49208;50.874;6.466;2022-08-02T05:30:30;100687.19;;;16.58;80.38
63115;BME280;49208;50.874;6.466;2022-08-02T05:32:55;100677.16;;;16.76;79.44
63115;BME280;49208;50.874;6.466;2022-08-02T05:35:22;100686.47;;;16.86;77.03
63115;BME280;49208;50.874;6.466;2022-08-02T05:37:48;100680.38;;;16.99;76.25
63115;BME280;49208;50.874;6.466;2022-08-02T05:40:14;100679.09;;;17.06;76.12
63115;BME280;49208;50.874;6.466;2022-08-02T05:42:40;100686.94;;;17.09;76.18
63115;BME280;49208;50.874;6.466;2022-08-02T05:45:06;100683.91;;;17.15;76.18
63115;BME280;49208;50.874;6.466;2022-08-02T05:47:31;100679.22;;;17.19;75.68
63115;BME280;49208;50.874;6.466;2022-08-02T05:49:57;100680.75;;;17.23;75.61
63115;BME280;49208;50.874;6.466;2022-08-02T05:52:25;100682.31;;;17.27;75.25
63115;BME280;49208;50.874;6.466;2022-08-02T05:55:10;100678.28;;;17.34;75.43
63115;BME280;49208;50.874;6.466;2022-08-02T05:57:56;100674.00;;;17.46;74.66
63115;BME280;49208;50.874;6.466;2022-08-02T06:00:29;100689.56;;;17.85;73.84
63115;BME280;49208;50.874;6.466;2022-08-02T06:03:23;100678.91;;;18.95;72.29
63115;BME280;49208;50.874;6.466;2022-08-02T06:06:01;100672.06;;;20.45;68.60
63115;BME280;49208;50.874;6.466;2022-08-02T06:08:41;100675.72;;;22.10;64.57
63115;BME280;49208;50.874;6.466;2022-08-02T06:11:11;100679.53;;;23.39;60.02
63115;BME280;49208;50.874;6.466;2022-08-02T06:13:39;100676.13;;;24.51;56.02
63115;BME280;49208;50.874;6.466;2022-08-02T06:16:05;100671.91;;;25.16;51.16
63115;BME280;49208;50.874;6.466;2022-08-02T06:18:31;100677.84;;;25.98;49.02
63115;BME280;49208;50.874;6.466;2022-08-02T06:21:01;100677.16;;;26.61;46.82
63115;BME280;49208;50.874;6.466;2022-08-02T06:23:27;100666.09;;;27.16;46.78
63115;BME280;49208;50.874;6.466;2022-08-02T06:25:53;100670.78;;;27.68;45.81
63115;BME280;49208;50.874;6.466;2022-08-02T06:28:21;100663.34;;;27.78;45.36
63115;BME280;49208;50.874;6.466;2022-08-02T06:30:46;100662.06;;;28.17;44.08
63115;BME280;49208;50.874;6.466;2022-08-02T06:33:12;100663.34;;;28.90;43.74
63115;BME280;49208;50.874;6.466;2022-08-02T06:35:51;100660.66;;;29.31;41.54
63115;BME280;49208;50.874;6.466;2022-08-02T06:38:26;100675.53;;;29.69;42.63
63115;BME280;49208;50.874;6.466;2022-08-02T06:41:06;100671.66;;;30.19;40.17
63115;BME280;49208;50.874;6.466;2022-08-02T06:43:51;100670.25;;;30.71;38.22
63115;BME280;49208;50.874;6.466;2022-08-02T06:46:18;100664.91;;;30.78;38.44
63115;BME280;49208;50.874;6.466;2022-08-02T06:48:44;100665.03;;;31.54;38.01
63115;BME280;49208;50.874;6.466;2022-08-02T06:51:09;100665.78;;;32.15;35.78
63115;BME280;49208;50.874;6.466;2022-08-02T06:53:35;100666.22;;;32.49;36.94
63115;BME280;49208;50.874;6.466;2022-08-02T06:56:00;100662.69;;;32.70;36.00
63115;BME280;49208;50.874;6.466;2022-08-02T06:58:25;100668.63;;;32.88;36.06
63115;BME280;49208;50.874;6.466;2022-08-02T07:00:51;100665.09;;;32.94;33.55
63115;BME280;49208;50.874;6.466;2022-08-02T07:03:17;100673.69;;;33.06;34.38
63115;BME280;49208;50.874;6.466;2022-08-02T07:05:42;100666.88;;;33.24;33.72
63115;BME280;49208;50.874;6.466;2022-08-02T07:08:15;100665.56;;;32.98;34.14
63115;BME280;49208;50.874;6.466;2022-08-02T07:10:41;100666.94;;;32.72;33.67
63115;BME280;49208;50.874;6.466;2022-08-02T07:13:06;100666.03;;;33.23;33.08
63115;BME280;49208;50.874;6.466;2022-08-02T07:15:32;100669.59;;;33.17;32.32
63115;BME280;49208;50.874;6.466;2022-08-02T07:17:57;100669.19;;;33.20;33.01
63115;BME280;49208;50.874;6.466;2022-08-02T07:20:23;100665.09;;;33.37;32.98
63115;BME280;49208;50.874;6.466;2022-08-02T07:22:48;100652.75;;;33.33;32.55
63115;BME280;49208;50.874;6.466;2022-08-02T07:25:14;100658.50;;;33.60;33.62
63115;BME280;49208;50.874;6.466;2022-08-02T07:27:39;100657.13;;;33.71;32.74
63115;BME280;49208;50.874;6.466;2022-08-02T07:30:05;100657.19;;;33.56;33.14
63115;BME280;49208;50.874;6.466;2022-08-02T07:32:32;100662.41;;;33.72;32.78
63115;BME280;49208;50.874;6.466;2022-08-02T07:34:58;100658.78;;;34.00;33.51
63115;BME280;49208;50.874;6.466;2022-08-02T07:37:29;100661.50;;;34.70;32.68
63115;BME280;49208;50.874;6.466;2022-08-02T07:39:55;100664.56;;;35.01;32.39
63115;BME280;49208;50.874;6.466;2022-08-02T07:42:21;100649.50;;;35.37;30.49
63115;BME280;49208;50.874;6.466;2022-08-02T07:44:46;100647.78;;;35.16;30.59
63115;BME280;49208;50.874;6.466;2022-08-02T07:47:12;100651.41;;;35.37;29.87
63115;BME280;49208;50.874;6.466;2022-08-02T07:49:37;100648.66;;;35.44;30.23
63115;BME280;49208;50.874;6.466;2022-08-02T07:52:02;100646.94;;;35.56;29.76
63115;BME280;49208;50.874;6.466;2022-08-02T07:54:28;100646.53;;;35.72;28.60
63115;BME280;49208;50.874;6.466;2022-08-02T07:56:54;100648.38;;;36.05;29.53
63115;BME280;49208;50.874;6.466;2022-08-02T07:59:20;100650.22;;;36.31;29.28
63115;BME280;49208;50.874;6.466;2022-08-02T08:01:45;100643.38;;;36.40;28.84
63115;BME280;49208;50.874;6.466;2022-08-02T08:04:11;100641.63;;;36.46;27.89
63115;BME280;49208;50.874;6.466;2022-08-02T08:06:36;100640.28;;;36.62;27.83
63115;BME280;49208;50.874;6.466;2022-08-02T08:09:02;100638.34;;;36.69;28.19
63115;BME280;49208;50.874;6.466;2022-08-02T08:11:27;100644.69;;;36.25;28.25
63115;BME280;49208;50.874;6.466;2022-08-02T08:13:53;100639.69;;;35.41;28.03
63115;BME280;49208;50.874;6.466;2022-08-02T08:16:18;100627.56;;;35.16;30.09
63115;BME280;49208;50.874;6.466;2022-08-02T08:18:44;100635.81;;;34.83;29.38
63115;BME280;49208;50.874;6.466;2022-08-02T08:21:09;100637.22;;;34.65;30.91
63115;BME280;49208;50.874;6.466;2022-08-02T08:23:35;100635.88;;;34.41;30.88
63115;BME280;49208;50.874;6.466;2022-08-02T08:26:02;100640.50;;;33.99;32.05
63115;BME280;49208;50.874;6.466;2022-08-02T08:28:28;100632.41;;;33.63;31.99
63115;BME280;49208;50.874;6.466;2022-08-02T08:30:53;100627.78;;;32.98;32.67
63115;BME280;49208;50.874;6.466;2022-08-02T08:33:19;100629.34;;;32.50;33.50
63115;BME280;49208;50.874;6.466;2022-08-02T08:35:44;100622.38;;;31.88;33.40
63115;BME280;49208;50.874;6.466;2022-08-02T08:38:10;100629.94;;;31.71;34.56
63115;BME280;49208;50.874;6.466;2022-08-02T08:40:36;100623.03;;;31.75;35.04
63115;BME280;49208;50.874;6.466;2022-08-02T08:43:03;100623.22;;;31.35;35.07
63115;BME280;49208;50.874;6.466;2022-08-02T08:45:29;100635.63;;;30.85;36.24
63115;BME280;49208;50.874;6.466;2022-08-02T08:48:15;100630.50;;;30.90;37.23
63115;BME280;49208;50.874;6.466;2022-08-02T08:50:49;100626.41;;;30.78;35.71
63115;BME280;49208;50.874;6.466;2022-08-02T08:53:16;100626.31;;;30.32;36.52
63115;BME280;49208;50.874;6.466;2022-08-02T08:55:42;100630.63;;;30.34;37.22
63115;BME280;49208;50.874;6.466;2022-08-02T08:58:08;100624.97;;;30.19;36.54
63115;BME280;49208;50.874;6.466;2022-08-02T09:00:34;100624.56;;;29.99;36.57
63115;BME280;49208;50.874;6.466;2022-08-02T09:03:02;100618.78;;;29.70;36.03
63115;BME280;49208;50.874;6.466;2022-08-02T09:05:28;100626.53;;;29.74;37.08
63115;BME280;49208;50.874;6.466;2022-08-02T09:07:53;100625.75;;;30.05;36.50
63115;BME280;49208;50.874;6.466;2022-08-02T09:15:32;100624.38;;;30.49;36.12
63115;BME280;49208;50.874;6.466;2022-08-02T09:17:58;100624.25;;;30.26;35.97
63115;BME280;49208;50.874;6.466;2022-08-02T09:20:23;100619.84;;;30.16;35.91
63115;BME280;49208;50.874;6.466;2022-08-02T09:23:09;100619.06;;;29.99;36.56
63115;BME280;49208;50.874;6.466;2022-08-02T09:25:35;100616.31;;;29.99;36.49
63115;BME280;49208;50.874;6.466;2022-08-02T09:28:02;100626.69;;;30.20;37.30
63115;BME280;49208;50.874;6.466;2022-08-02T09:30:28;100622.78;;;30.54;35.61
63115;BME280;49208;50.874;6.466;2022-08-02T09:32:54;100616.31;;;30.70;35.74
63115;BME280;49208;50.874;6.466;2022-08-02T09:35:39;100612.88;;;30.99;36.09
63115;BME280;49208;50.874;6.466;2022-08-02T09:38:13;100615.06;;;31.04;35.11
63115;BME280;49208;50.874;6.466;2022-08-02T09:40:40;100603.94;;;31.20;34.65
63115;BME280;49208;50.874;6.466;2022-08-02T09:43:07;100602.25;;;31.19;34.93
63115;BME280;49208;50.874;6.466;2022-08-02T09:45:34;100619.50;;;31.28;34.38
63115;BME280;49208;50.874;6.466;2022-08-02T09:48:06;100613.38;;;31.41;33.80
63115;BME280;49208;50.874;6.466;2022-08-02T09:50:33;100621.78;;;31.62;32.79
63115;BME280;49208;50.874;6.466;2022-08-02T09:52:59;100619.81;;;31.71;32.85
63115;BME280;49208;50.874;6.466;2022-08-02T09:55:27;100618.38;;;31.90;32.58
63115;BME280;49208;50.874;6.466;2022-08-02T09:57:52;100612.97;;;32.12;32.38
63115;BME280;49208;50.874;6.466;2022-08-02T10:00:18;100608.22;;;31.91;31.88
63115;BME280;49208;50.874;6.466;2022-08-02T10:05:53;100602.41;;;31.71;33.46
63115;BME280;49208;50.874;6.466;2022-08-02T10:08:19;100608.66;;;31.50;33.38
63115;BME280;49208;50.874;6.466;2022-08-02T10:10:45;100603.84;;;31.29;34.44
63115;BME280;49208;50.874;6.466;2022-08-02T10:13:11;100602.78;;;31.15;34.88
63115;BME280;49208;50.874;6.466;2022-08-02T10:15:37;100606.94;;;31.11;35.48
63115;BME280;49208;50.874;6.466;2022-08-02T10:18:06;100617.47;;;31.07;35.53
63115;BME280;49208;50.874;6.466;2022-08-02T10:20:39;100602.41;;;31.18;35.59
63115;BME280;49208;50.874;6.466;2022-08-02T10:23:07;100596.91;;;31.18;34.64
63115;BME280;49208;50.874;6.466;2022-08-02T10:25:37;100602.38;;;31.41;35.78
63115;BME280;49208;50.874;6.466;2022-08-02T10:28:05;100600.63;;;31.63;34.72
63115;BME280;49208;50.874;6.466;2022-08-02T10:30:33;100595.41;;;31.83;33.94
63115;BME280;49208;50.874;6.466;2022-08-02T10:33:00;100589.31;;;31.73;33.50
63115;BME280;49208;50.874;6.466;2022-08-02T10:35:27;100582.22;;;31.64;33.09
63115;BME280;49208;50.874;6.466;2022-08-02T10:38:00;100586.56;;;31.58;33.44
63115;BME280;49208;50.874;6.466;2022-08-02T10:40:51;100575.28;;;31.53;34.42
63115;BME280;49208;50.874;6.466;2022-08-02T10:43:45;100577.94;;;31.76;33.73
63115;BME280;49208;50.874;6.466;2022-08-02T10:46:33;100582.88;;;32.10;33.36
63115;BME280;49208;50.874;6.466;2022-08-02T10:49:06;100580.66;;;32.20;32.09
63115;BME280;49208;50.874;6.466;2022-08-02T10:54:31;100570.91;;;32.18;33.40
63115;BME280;49208;50.874;6.466;2022-08-02T10:56:57;100582.88;;;32.25;33.16
63115;BME280;49208;50.874;6.466;2022-08-02T11:01:52;100571.94;;;32.53;32.20
63115;BME280;49208;50.874;6.466;2022-08-02T11:07:18;100578.47;;;32.89;31.01
63115;BME280;49208;50.874;6.466;2022-08-02T11:09:46;100576.69;;;33.02;30.37
63115;BME280;49208;50.874;6.466;2022-08-02T11:12:14;100583.69;;;33.27;30.65
63115;BME280;49208;50.874;6.466;2022-08-02T11:14:42;100577.72;;;33.51;30.43
63115;BME280;49208;50.874;6.466;2022-08-02T11:17:15;100572.56;;;33.70;30.37
63115;BME280;49208;50.874;6.466;2022-08-02T11:20:33;100579.34;;;33.67;30.06
63115;BME280;49208;50.874;6.466;2022-08-02T11:22:53;100569.25;;;33.53;29.92
63115;BME280;49208;50.874;6.466;2022-08-02T11:27:54;100564.19;;;33.28;30.93
63115;BME280;49208;50.874;6.466;2022-08-02T11:30:20;100567.66;;;33.37;30.91
63115;BME280;49208;50.874;6.466;2022-08-02T11:32:47;100561.97;;;33.45;29.73
63115;BME280;49208;50.874;6.466;2022-08-02T11:35:13;100570.09;;;33.53;30.16
63115;BME280;49208;50.874;6.466;2022-08-02T11:37:39;100573.31;;;33.57;29.72
63115;BME280;49208;50.874;6.466;2022-08-02T11:40:15;100573.59;;;33.62;28.70
63115;BME280;49208;50.874;6.466;2022-08-02T11:42:43;100570.63;;;33.64;28.85
63115;BME280;49208;50.874;6.466;2022-08-02T11:45:10;100563.59;;;33.61;29.90
63115;BME280;49208;50.874;6.466;2022-08-02T11:47:45;100568.59;;;33.51;29.61
63115;BME280;49208;50.874;6.466;2022-08-02T11:50:11;100565.66;;;33.24;29.08
63115;BME280;49208;50.874;6.466;2022-08-02T11:52:37;100568.56;;;32.94;30.00
63115;BME280;49208;50.874;6.466;2022-08-02T11:55:04;100563.75;;;32.60;30.73
63115;BME280;49208;50.874;6.466;2022-08-02T11:57:30;100569.34;;;32.30;30.70
63115;BME280;49208;50.874;6.466;2022-08-02T11:59:56;100564.91;;;32.14;29.85
63115;BME280;49208;50.874;6.466;2022-08-02T12:02:27;100553.09;;;31.99;30.15
63115;BME280;49208;50.874;6.466;2022-08-02T12:04:57;100559.25;;;31.86;31.72
63115;BME280;49208;50.874;6.466;2022-08-02T12:07:32;100564.44;;;31.81;31.82
63115;BME280;49208;50.874;6.466;2022-08-02T12:10:13;100556.19;;;31.81;31.51
63115;BME280;49208;50.874;6.466;2022-08-02T12:13:05;100562.47;;;31.75;31.96
63115;BME280;49208;50.874;6.466;2022-08-02T12:17:59;100563.78;;;31.49;31.59
63115;BME280;49208;50.874;6.466;2022-08-02T12:20:43;100550.66;;;31.36;32.02
63115;BME280;49208;50.874;6.466;2022-08-02T12:23:09;100559.59;;;31.38;32.70
63115;BME280;49208;50.874;6.466;2022-08-02T12:25:36;100556.34;;;31.35;32.78
63115;BME280;49208;50.874;6.466;2022-08-02T12:28:15;100554.75;;;31.40;32.77
63115;BME280;49208;50.874;6.466;2022-08-02T12:30:49;100546.13;;;31.58;33.58
63115;BME280;49208;50.874;6.466;2022-08-02T12:33:15;100542.13;;;31.91;32.87
63115;BME280;49208;50.874;6.466;2022-08-02T12:35:41;100538.91;;;32.17;32.72
63115;BME280;49208;50.874;6.466;2022-08-02T12:38:10;100543.84;;;32.43;32.48
63115;BME280;49208;50.874;6.466;2022-08-02T12:40:35;100544.16;;;32.70;32.22
63115;BME280;49208;50.874;6.466;2022-08-02T12:43:04;100544.88;;;32.78;31.72
63115;BME280;49208;50.874;6.466;2022-08-02T12:45:31;100534.22;;;32.54;31.12
63115;BME280;49208;50.874;6.466;2022-08-02T12:47:59;100539.09;;;32.37;31.17
63115;BME280;49208;50.874;6.466;2022-08-02T12:50:26;100528.84;;;32.09;32.00
63115;BME280;49208;50.874;6.466;2022-08-02T12:55:33;100546.41;;;31.78;31.88
63115;BME280;49208;50.874;6.466;2022-08-02T12:58:04;100536.09;;;31.66;32.07
63115;BME280;49208;50.874;6.466;2022-08-02T13:00:35;100529.53;;;31.52;32.80
63115;BME280;49208;50.874;6.466;2022-08-02T13:03:02;100526.34;;;31.48;33.36
63115;BME280;49208;50.874;6.466;2022-08-02T13:05:28;100527.53;;;31.46;32.81
63115;BME280;49208;50.874;6.466;2022-08-02T13:07:55;100527.75;;;31.44;33.02
63115;BME280;49208;50.874;6.466;2022-08-02T13:10:21;100521.84;;;31.47;32.94
63115;BME280;49208;50.874;6.466;2022-08-02T13:12:47;100525.38;;;31.56;32.85
63115;BME280;49208;50.874;6.466;2022-08-02T13:15:14;100517.19;;;31.62;32.87
63115;BME280;49208;50.874;6.466;2022-08-02T13:17:39;100511.81;;;31.69;32.75
63115;BME280;49208;50.874;6.466;2022-08-02T13:20:06;100515.00;;;31.88;33.12
63115;BME280;49208;50.874;6.466;2022-08-02T13:22:31;100523.44;;;32.01;31.86
63115;BME280;49208;50.874;6.466;2022-08-02T13:24:57;100522.75;;;32.14;31.28
63115;BME280;49208;50.874;6.466;2022-08-02T13:27:23;100525.88;;;32.26;31.57